Championnats de France Cadets

Compétition Nationale

LILLE

Du Lundi 21 Juillet 2008 au Mercredi 23 Juillet 2008

Bassin de 50m

400 Nage Libre Dames

Finale A

Nom Année Temps Pts Club Pays
1 GRANGEON Lara 1991 4:21:09 1243 CN CALÉDONIENS FRA
2 DUCLOS Fiona 1991 4:22:67 1231 CN CANNES FRA
3 ASPORD Ophélie 1991 4:25:07 1211 BAYONNE-AVIRON BAYONNAIS FRA
4 CODEVELLE Coralie 1992 4:25:69 1206 DUNKERQUE NATATION FRA
5 CARQUET Elsa 1991 4:25:98 1204 ST-ETIENNE NATATION FRA
6 VIGORITO Erika 1992 4:27:02 1196 CN MARSEILLE FRA
7 BREMOND Maëva 1991 4:30:06 1172 CN ANTIBES FRA
8 DIMITROFF Anne 1992 4:31:41 1161 AMSL FRÉJUS FRA

Finale B

Nom Année Temps Pts Club Pays
1 BRIOT Olivia 1992 4:30:89 1165 GIRONDINS BORDEAUX FRA
2 EGINER Camille 1992 4:31:69 1159 LONGVILLIERS CLUB FRA
3 ANDRIEN Claire 1992 4:33:67 1144 SO MILLAU N FRA
4 LAMBOT Laurence 1991 4:34:39 1138 AMIENS METROPOLE NAT. FRA
5 LEPRETRE Sarah-Ginn 1991 4:35:89 1126 EN CAEN FRA
6 SIMONNET Pauline 1992 4:36:20 1124 CSM CLAMART FRA
7 PECHEUR Mélanie 1991 4:37:12 1117 STADE FRANÇAIS O COURBEVOIE FRA
8 MENENDEZ Pauline 1992 4:37:15 1117 CN CHALON-SUR-SAONE FRA

Séries

Nom Année Temps Pts Club Pays
1 GRANGEON Lara 1991 4:23:78 1222 CN CALÉDONIENS FRA
2 DUCLOS Fiona 1991 4:28:44 1185 CN CANNES FRA
3 ASPORD Ophélie 1991 4:28:67 1183 BAYONNE-AVIRON BAYONNAIS FRA
4 VIGORITO Erika 1992 4:29:15 1179 CN MARSEILLE FRA
5 BREMOND Maëva 1991 4:30:09 1172 CN ANTIBES FRA
6 CODEVELLE Coralie 1992 4:30:45 1169 DUNKERQUE NATATION FRA
7 CARQUET Elsa 1991 4:30:59 1168 ST-ETIENNE NATATION FRA
8 DIMITROFF Anne 1992 4:32:12 1156 AMSL FRÉJUS FRA
9 PECHEUR Mélanie 1991 4:32:13 1156 STADE FRANÇAIS O COURBEVOIE FRA
10 BRIOT Olivia 1992 4:33:74 1143 GIRONDINS BORDEAUX FRA
11 MENENDEZ Pauline 1992 4:34:35 1138 CN CHALON-SUR-SAONE FRA
12 LAMBOT Laurence 1991 4:34:77 1135 AMIENS METROPOLE NAT. FRA
13 EGINER Camille 1992 4:35:18 1132 LONGVILLIERS CLUB FRA
14 LEPRETRE Sarah-Ginn 1991 4:35:22 1132 EN CAEN FRA
15 ANDRIEN Claire 1992 4:35:76 1127 SO MILLAU N FRA
16 SIMONNET Pauline 1992 4:36:33 1123 CSM CLAMART FRA
17 ROPERT Marie 1992 4:36:51 1122 AS BONDY FRA
18 BOUTELOUP Anne-Gabriela 1991 4:37:01 1118 CN CHALON-SUR-SAONE FRA
19 DHERSIN Agathe 1991 4:38:62 1105 DUNKERQUE NATATION FRA
20 VEZILIER Sandra 1991 4:38:72 1105 RACING CLUB ARRAS FRA
21 DOCQUIN Bérénice 1992 4:39:21 1101 CHARLEVILLE-MÉZIÈRES NATATION FRA
22 TRANCHANT Meggane 1992 4:39:61 1098 SPN POITIERS FRA
23 CORTOT Hélène 1991 4:40:33 1092 CN CHALON-SUR-SAONE FRA
24 ROSSO Amélie 1991 4:40:40 1092 CN ANTIBES FRA
25 DELETRAZ Léna 1992 4:40:57 1091 DAUPHINS D'ANNECY FRA
26 CHIES Célia 1992 4:40:86 1088 DUNKERQUE NATATION FRA
27 EVA Fiona 1992 4:41:39 1084 CN SARREGUEMINES FRA
28 LUCAS Marine 1991 4:41:40 1084 CNP DE SAINT-LO FRA
29 BIZOUERNE Floriane 1991 4:41:56 1083 AS BONDY FRA
30 AFZALI Aude 1991 4:41:73 1082 OLYMPIQUE CLUB CESSON-SÉVIGNÉ FRA
31 SISTACH Marine 1992 4:42:53 1076 CANET 66 NATATION FRA
32 CHEBAT Raïssa 1991 4:42:79 1074 CN SARREGUEMINES FRA
33 KRZNARIE Margaux 1992 4:43:01 1072 LILLE UC NATATION FRA
34 BOUIX Pauline 1992 4:43:90 1065 AQUA SPORT ST-CYPRIEN FRA
35 FLORY Julie 1992 4:44:28 1063 CN SARREGUEMINES FRA
36 NOEL Alice 1991 4:44:39 1062 EN CAEN FRA
37 PASQUIOU Leïla 1992 4:44:50 1061 CN GUINGAMP FRA
38 HERLEM Ashley 1992 4:45:41 1054 LILLE UC NATATION FRA
39 DENEUVE Marie 1991 4:46:10 1049 C VIKINGS DE ROUEN FRA
40 SANTOS Elsa 1991 4:46:74 1044 NC ECHIROLLES FRA
41 TOMASICCHIO Candice 1992 4:46:96 1043 EMS BRON FRA
42 GUERRY Flora 1992 4:46:98 1042 NC ECHIROLLES FRA
43 VOILLY Alice 1991 4:47:83 1036 AUXERRE AQUATIC CLUB FRA
44 BOUDRY Alison 1992 4:48:09 1034 AVENIR NATATION BESANÇON FRA
45 ROQUEFORT COOK Katline 1991 4:48:33 1032 AS HERBLAY NATATION FRA
46 BALEDENT Justine 1991 4:49:13 1027 SC NATATION ABBEVILLE FRA
47 CHWAL Célia 1991 4:50:07 1020 SPN POITIERS FRA
48 NITSCHE Isaline 1991 4:51:60 1008 CN BREST FRA
49 TROADEC Caroline 1992 4:56:08 976 OCTEVILLE NATATION FRA
RACING CLUB ARRAS